createdAt,value
2022-08-26T00:01:56.928Z,7.80
2022-08-26T00:04:25.657Z,7.60
2022-08-26T00:06:53.797Z,7.43
2022-08-26T00:09:21.026Z,8.20
2022-08-26T00:11:47.690Z,7.32
2022-08-26T00:14:15.850Z,7.38
2022-08-26T00:16:48.185Z,8.35
2022-08-26T00:19:17.082Z,7.57
2022-08-26T00:21:44.118Z,7.90
2022-08-26T00:24:10.937Z,7.47
2022-08-26T00:26:37.594Z,8.55
2022-08-26T00:29:04.516Z,6.97
2022-08-26T00:31:32.608Z,6.70
2022-08-26T00:33:59.693Z,8.10
2022-08-26T00:36:29.716Z,7.82
2022-08-26T00:38:58.115Z,7.15
2022-08-26T00:41:24.693Z,7.45
2022-08-26T00:43:53.132Z,6.75
2022-08-26T00:46:28.762Z,7.60
2022-08-26T00:49:05.356Z,7.40
2022-08-26T00:51:45.403Z,7.32
2022-08-26T00:54:12.815Z,7.38
2022-08-26T00:56:50.700Z,6.43
2022-08-26T00:59:18.045Z,7.07
2022-08-26T01:01:45.912Z,7.93
2022-08-26T01:04:17.890Z,7.68
2022-08-26T01:06:45.140Z,7.25
2022-08-26T01:09:12.200Z,7.88
2022-08-26T01:11:39.811Z,7.57
2022-08-26T01:14:08.761Z,7.03
2022-08-26T01:16:36.629Z,7.38
2022-08-26T01:19:15.999Z,6.45
2022-08-26T01:21:50.127Z,7.45
2022-08-26T01:24:18.270Z,7.78
2022-08-26T01:26:45.766Z,8.18
2022-08-26T01:29:16.339Z,6.45
2022-08-26T01:31:47.938Z,7.15
2022-08-26T01:34:25.883Z,7.22
2022-08-26T01:37:01.656Z,7.93
2022-08-26T01:39:28.929Z,8.50
2022-08-26T01:41:58.174Z,7.53
2022-08-26T01:44:39.187Z,6.57
2022-08-26T01:47:07.116Z,8.18
2022-08-26T01:49:36.655Z,8.45
2022-08-26T01:52:05.814Z,7.15
2022-08-26T01:54:33.220Z,7.22
2022-08-26T01:57:00.992Z,8.18
2022-08-26T01:59:30.368Z,6.65
2022-08-26T02:01:57.342Z,6.88
2022-08-26T02:04:59.610Z,8.63
2022-08-26T02:07:27.934Z,7.47
2022-08-26T02:09:55.160Z,6.95
2022-08-26T02:12:22.470Z,8.35
2022-08-26T02:14:59.660Z,8.65
2022-08-26T02:17:33.867Z,7.55
2022-08-26T02:20:02.530Z,8.32
2022-08-26T02:22:31.048Z,8.77
2022-08-26T02:25:02.348Z,7.00
2022-08-26T02:27:32.880Z,8.90
2022-08-26T02:30:17.226Z,7.75
2022-08-26T02:32:44.431Z,7.35
2022-08-26T02:35:13.856Z,7.55
2022-08-26T02:37:49.540Z,7.80
2022-08-26T02:40:21.484Z,6.20
2022-08-26T02:42:49.540Z,8.55
2022-08-26T02:47:51.583Z,8.23
2022-08-26T02:50:19.235Z,6.90
2022-08-26T02:52:45.903Z,8.60
2022-08-26T02:55:12.624Z,6.68
2022-08-26T02:57:39.489Z,7.60
2022-08-26T03:00:09.230Z,7.10
2022-08-26T03:02:35.885Z,9.07
2022-08-26T03:05:02.928Z,8.38
2022-08-26T03:07:30.402Z,9.52
2022-08-26T03:09:58.230Z,9.05
2022-08-26T03:12:25.686Z,8.70
2022-08-26T03:14:52.774Z,9.27
2022-08-26T03:17:19.418Z,9.95
2022-08-26T03:19:46.047Z,9.38
2022-08-26T03:22:14.554Z,8.95
2022-08-26T03:24:42.163Z,10.05
2022-08-26T03:27:13.346Z,9.18
2022-08-26T03:30:00.184Z,8.23
2022-08-26T03:32:28.051Z,8.98
2022-08-26T03:34:56.482Z,7.38
2022-08-26T03:37:23.128Z,7.93
2022-08-26T03:39:49.942Z,8.13
2022-08-26T03:42:16.961Z,8.00
2022-08-26T03:44:43.806Z,8.30
2022-08-26T03:47:11.124Z,8.68
2022-08-26T03:49:38.081Z,8.52
2022-08-26T03:52:05.169Z,8.27
2022-08-26T03:54:32.547Z,7.55
2022-08-26T03:56:59.089Z,7.75
2022-08-26T03:59:25.980Z,7.60
2022-08-26T04:01:52.641Z,7.65
2022-08-26T04:04:22.602Z,8.00
2022-08-26T04:06:50.248Z,7.93
2022-08-26T04:09:20.969Z,7.75
2022-08-26T04:11:50.376Z,8.45
2022-08-26T04:14:20.745Z,9.52
2022-08-26T04:16:48.252Z,8.73
2022-08-26T04:19:16.433Z,8.05
2022-08-26T04:21:44.187Z,8.25
2022-08-26T04:24:13.971Z,9.18
2022-08-26T04:26:42.813Z,9.43
2022-08-26T04:29:17.665Z,8.60
2022-08-26T04:31:44.847Z,9.30
2022-08-26T04:34:11.683Z,8.95
2022-08-26T04:36:41.121Z,9.05
2022-08-26T04:39:12.113Z,8.07
2022-08-26T04:41:40.078Z,8.27
2022-08-26T04:44:07.790Z,7.65
2022-08-26T04:46:35.355Z,7.85
2022-08-26T04:49:08.829Z,7.88
2022-08-26T04:51:36.756Z,7.22
2022-08-26T04:54:06.979Z,7.30
2022-08-26T04:56:37.696Z,7.82
2022-08-26T04:59:08.021Z,7.88
2022-08-26T05:01:45.541Z,9.05
2022-08-26T05:04:13.260Z,7.20
2022-08-26T05:06:43.063Z,9.25
2022-08-26T05:09:10.014Z,7.70
2022-08-26T05:11:38.109Z,8.52
2022-08-26T05:14:06.032Z,7.30
2022-08-26T05:16:32.668Z,8.85
2022-08-26T05:18:59.689Z,9.15
2022-08-26T05:21:29.017Z,8.02
2022-08-26T05:23:56.476Z,8.57
2022-08-26T05:26:26.544Z,7.25
2022-08-26T05:28:54.731Z,8.85
2022-08-26T05:31:28.450Z,8.02
2022-08-26T05:33:57.637Z,7.50
2022-08-26T05:36:27.849Z,7.88
2022-08-26T05:38:55.725Z,8.77
2022-08-26T05:41:34.219Z,8.60
2022-08-26T05:44:06.202Z,7.85
2022-08-26T05:46:33.949Z,8.10
2022-08-26T05:49:01.599Z,7.40
2022-08-26T05:51:30.353Z,8.20
2022-08-26T05:53:57.269Z,8.40
2022-08-26T05:56:27.522Z,8.00
2022-08-26T05:58:55.932Z,8.02
2022-08-26T06:01:26.331Z,7.85
2022-08-26T06:03:57.581Z,7.57
2022-08-26T06:06:32.839Z,8.27
2022-08-26T06:09:01.258Z,7.50
2022-08-26T06:11:29.609Z,8.25
2022-08-26T06:14:03.627Z,8.30
2022-08-26T06:16:33.490Z,8.25
2022-08-26T06:19:02.899Z,7.68
2022-08-26T06:21:32.540Z,6.82
2022-08-26T06:24:21.492Z,8.27
2022-08-26T06:26:57.578Z,6.75
2022-08-26T06:29:25.970Z,8.65
2022-08-26T06:31:56.447Z,8.77
2022-08-26T06:34:26.737Z,8.45
2022-08-26T06:37:06.449Z,9.32
2022-08-26T06:39:33.533Z,9.65
2022-08-26T06:42:00.996Z,8.15
2022-08-26T06:44:29.843Z,8.05
2022-08-26T06:46:56.505Z,8.73
2022-08-26T06:49:26.979Z,7.90
2022-08-26T06:51:55.368Z,7.85
2022-08-26T06:54:22.373Z,7.95
2022-08-26T06:56:49.595Z,8.93
2022-08-26T06:59:16.287Z,8.55
2022-08-26T07:01:47.279Z,8.82
2022-08-26T07:04:21.835Z,8.93
2022-08-26T07:06:49.335Z,7.97
2022-08-26T07:09:17.408Z,9.10
2022-08-26T07:11:45.070Z,8.05
2022-08-26T07:14:12.436Z,8.13
2022-08-26T07:16:39.663Z,8.38
2022-08-26T07:19:11.267Z,9.10
2022-08-26T07:21:40.451Z,9.27
2022-08-26T07:24:07.757Z,8.63
2022-08-26T07:26:34.860Z,7.55
2022-08-26T07:29:02.010Z,7.40
2022-08-26T07:31:39.185Z,8.55
2022-08-26T07:34:07.719Z,7.65
2022-08-26T07:36:34.887Z,8.85
2022-08-26T07:39:01.530Z,9.05
2022-08-26T07:43:56.774Z,7.75
2022-08-26T07:46:27.492Z,8.13
2022-08-26T07:48:58.075Z,7.97
2022-08-26T07:51:25.073Z,9.25
2022-08-26T07:53:52.434Z,8.13
2022-08-26T07:56:20.121Z,8.18
2022-08-26T07:58:51.335Z,8.32
2022-08-26T08:01:23.974Z,8.82
2022-08-26T08:03:52.349Z,9.88
2022-08-26T08:06:27.135Z,9.93
2022-08-26T08:08:55.259Z,8.63
2022-08-26T08:11:23.184Z,7.97
2022-08-26T08:13:56.338Z,9.10
2022-08-26T08:16:26.197Z,7.85
2022-08-26T08:18:53.504Z,9.60
2022-08-26T08:21:22.021Z,8.75
2022-08-26T08:23:55.384Z,9.95
2022-08-26T08:26:24.072Z,9.15
2022-08-26T08:28:53.644Z,10.55
2022-08-26T08:34:21.518Z,9.15
2022-08-26T08:36:48.647Z,8.50
2022-08-26T08:39:16.804Z,11.38
2022-08-26T08:42:04.322Z,9.18
2022-08-26T08:44:31.132Z,10.35
2022-08-26T08:47:06.167Z,10.45
2022-08-26T08:49:34.054Z,10.90
2022-08-26T08:52:19.948Z,10.55
2022-08-26T08:54:46.694Z,9.10
2022-08-26T08:57:24.470Z,9.18
2022-08-26T09:00:04.467Z,9.93
2022-08-26T09:02:42.248Z,10.77
2022-08-26T09:05:16.198Z,11.32
2022-08-26T09:07:52.893Z,10.07
2022-08-26T09:10:43.317Z,12.05
2022-08-26T09:13:16.848Z,12.85
2022-08-26T09:16:26.051Z,11.65
2022-08-26T09:19:23.998Z,9.80
2022-08-26T09:22:02.242Z,9.25
2022-08-26T09:24:40.867Z,8.52
2022-08-26T09:27:08.952Z,8.57
2022-08-26T09:29:44.341Z,8.63
2022-08-26T09:32:24.399Z,8.50
2022-08-26T09:34:58.190Z,11.53
2022-08-26T09:37:36.283Z,10.02
2022-08-26T09:40:29.748Z,9.00
2022-08-26T09:43:09.715Z,8.43
2022-08-26T09:45:40.138Z,9.90
2022-08-26T09:48:08.302Z,11.13
2022-08-26T09:50:39.971Z,10.85
2022-08-26T09:53:21.068Z,10.65
2022-08-26T09:56:12.750Z,10.90
2022-08-26T09:58:41.934Z,11.05
2022-08-26T10:01:16.319Z,10.38
2022-08-26T10:03:43.400Z,11.63
2022-08-26T10:06:13.067Z,9.93
2022-08-26T10:08:47.632Z,10.23
2022-08-26T10:11:24.380Z,9.73
2022-08-26T10:14:02.370Z,10.45
2022-08-26T10:16:36.494Z,9.57
2022-08-26T10:19:09.882Z,9.43
2022-08-26T10:21:44.464Z,9.27
2022-08-26T10:24:19.141Z,8.60
2022-08-26T10:27:07.872Z,11.73
2022-08-26T10:29:46.463Z,10.45
2022-08-26T10:32:31.613Z,11.73
2022-08-26T10:35:00.335Z,9.40
2022-08-26T10:37:35.521Z,9.40
2022-08-26T10:40:11.208Z,9.70
2022-08-26T10:43:11.044Z,9.60
2022-08-26T10:45:53.357Z,9.40
2022-08-26T10:48:23.082Z,9.82
2022-08-26T10:50:50.239Z,8.95
2022-08-26T10:53:19.744Z,9.00
2022-08-26T10:56:05.478Z,9.13
2022-08-26T10:58:41.296Z,8.50
2022-08-26T11:01:43.768Z,9.13
2022-08-26T11:04:38.619Z,9.50
2022-08-26T11:07:38.281Z,7.80
2022-08-26T11:10:29.913Z,9.52
2022-08-26T11:13:03.804Z,9.25
2022-08-26T11:15:30.910Z,8.35
2022-08-26T11:18:01.476Z,7.55
2022-08-26T11:20:45.998Z,9.57
2022-08-26T11:23:13.838Z,9.23
2022-08-26T11:26:02.065Z,7.80
2022-08-26T11:28:36.135Z,7.72
2022-08-26T11:31:05.578Z,7.60
2022-08-26T11:33:57.009Z,7.85
2022-08-26T11:36:42.797Z,8.30
2022-08-26T11:39:49.346Z,8.02
2022-08-26T11:42:43.365Z,8.18
2022-08-26T11:45:18.531Z,9.13
2022-08-26T11:47:46.641Z,9.82
2022-08-26T11:50:20.584Z,9.73
2022-08-26T11:52:51.856Z,9.18
2022-08-26T11:55:19.223Z,8.00
2022-08-26T11:57:52.558Z,8.98
2022-08-26T12:00:24.199Z,8.25
2022-08-26T12:02:52.388Z,10.15
2022-08-26T12:05:30.986Z,8.18
2022-08-26T12:08:03.168Z,9.43
2022-08-26T12:10:33.701Z,10.25
2022-08-26T12:15:32.153Z,8.73
2022-08-26T12:20:46.522Z,9.15
2022-08-26T12:23:40.629Z,8.27
2022-08-26T12:26:30.312Z,8.07
2022-08-26T12:28:58.686Z,8.27
2022-08-26T12:31:40.453Z,8.43
2022-08-26T12:34:17.468Z,9.18
2022-08-26T12:36:48.932Z,8.10
2022-08-26T12:39:29.504Z,7.97
2022-08-26T12:44:58.619Z,7.95
2022-08-26T12:47:42.943Z,7.90
2022-08-26T12:50:24.572Z,9.25
2022-08-26T12:53:00.470Z,8.50
2022-08-26T12:55:54.041Z,9.13
2022-08-26T12:58:36.970Z,8.50
2022-08-26T13:01:07.040Z,8.32
2022-08-26T13:03:34.903Z,8.00
2022-08-26T13:06:25.941Z,9.18
2022-08-26T13:08:54.316Z,9.10
2022-08-26T13:11:32.409Z,9.55
2022-08-26T13:14:08.165Z,9.27
2022-08-26T13:16:37.380Z,8.88
2022-08-26T13:19:10.397Z,9.32
2022-08-26T13:21:58.985Z,9.07
2022-08-26T13:24:38.669Z,8.60
2022-08-26T13:27:07.482Z,8.17
2022-08-26T13:29:36.817Z,8.48
2022-08-26T13:32:05.482Z,10.18
2022-08-26T13:34:35.812Z,9.32
2022-08-26T13:37:02.717Z,10.02
2022-08-26T13:39:29.400Z,8.73
2022-08-26T13:41:56.399Z,8.70
2022-08-26T13:44:23.108Z,9.25
2022-08-26T13:46:49.944Z,8.40
2022-08-26T13:49:16.751Z,7.38
2022-08-26T13:51:46.309Z,9.23
2022-08-26T13:54:13.055Z,8.80
2022-08-26T13:56:39.855Z,8.30
2022-08-26T13:59:06.754Z,9.40
2022-08-26T14:01:34.989Z,10.52
2022-08-26T14:04:02.694Z,10.02
2022-08-26T14:06:30.095Z,8.77
2022-08-26T14:08:56.894Z,8.77
2022-08-26T14:11:25.092Z,9.52
2022-08-26T14:13:52.613Z,8.70
2022-08-26T14:16:36.301Z,8.50
2022-08-26T14:19:18.042Z,11.32
2022-08-26T14:21:51.235Z,9.73
2022-08-26T14:24:17.842Z,9.73
2022-08-26T14:26:44.514Z,11.63
2022-08-26T14:29:14.642Z,10.45
2022-08-26T14:31:43.639Z,11.23
2022-08-26T14:34:13.102Z,10.43
2022-08-26T14:36:39.831Z,11.30
2022-08-26T14:39:10.066Z,9.52
2022-08-26T14:41:54.508Z,9.95
2022-08-26T14:44:25.893Z,8.40
2022-08-26T14:46:53.502Z,9.27
2022-08-26T14:49:22.234Z,8.77
2022-08-26T14:51:49.323Z,8.40
2022-08-26T14:54:18.311Z,10.10
2022-08-26T14:56:49.340Z,8.07
2022-08-26T14:59:21.909Z,9.88
2022-08-26T15:01:49.169Z,9.45
2022-08-26T15:04:16.329Z,10.55
2022-08-26T15:06:43.417Z,8.10
2022-08-26T15:09:11.163Z,10.00
2022-08-26T15:11:38.254Z,9.70
2022-08-26T15:14:19.107Z,10.25
2022-08-26T15:16:59.100Z,9.60
2022-08-26T15:19:26.585Z,8.50
2022-08-26T15:21:53.345Z,9.10
2022-08-26T15:24:28.961Z,8.50
2022-08-26T15:26:56.145Z,9.27
2022-08-26T15:29:26.595Z,8.63
2022-08-26T15:31:55.270Z,9.55
2022-08-26T15:34:24.257Z,8.65
2022-08-26T15:36:50.995Z,11.07
2022-08-26T15:39:19.043Z,10.07
2022-08-26T15:41:46.396Z,9.95
2022-08-26T15:44:19.959Z,8.75
2022-08-26T15:46:48.512Z,9.15
2022-08-26T15:49:17.744Z,8.60
2022-08-26T15:51:48.139Z,10.43
2022-08-26T15:54:21.041Z,8.05
2022-08-26T15:57:14.364Z,10.02
2022-08-26T15:59:42.035Z,11.45
2022-08-26T16:02:10.877Z,10.90
2022-08-26T16:04:37.684Z,9.48
2022-08-26T16:07:04.791Z,9.75
2022-08-26T16:09:32.665Z,10.25
2022-08-26T16:11:59.418Z,8.95
2022-08-26T16:14:26.597Z,9.55
2022-08-26T16:16:53.530Z,10.50
2022-08-26T16:19:24.779Z,9.50
2022-08-26T16:21:51.871Z,10.45
2022-08-26T16:24:25.904Z,8.73
2022-08-26T16:26:54.553Z,10.20
2022-08-26T16:29:21.371Z,8.80
2022-08-26T16:31:50.598Z,9.02
2022-08-26T16:34:17.535Z,10.68
2022-08-26T16:36:44.446Z,9.32
2022-08-26T16:39:11.219Z,9.57
2022-08-26T16:41:38.040Z,9.23
2022-08-26T16:44:05.742Z,10.85
2022-08-26T16:46:33.863Z,10.23
2022-08-26T16:49:03.627Z,9.30
2022-08-26T16:51:32.444Z,9.05
2022-08-26T16:54:08.804Z,9.02
2022-08-26T16:59:05.037Z,11.30
2022-08-26T17:01:32.153Z,9.90
2022-08-26T17:03:58.864Z,8.55
2022-08-26T17:06:25.476Z,8.57
2022-08-26T17:08:53.135Z,9.80
2022-08-26T17:11:19.838Z,8.88
2022-08-26T17:13:46.512Z,10.02
2022-08-26T17:16:13.999Z,10.10
2022-08-26T17:18:43.210Z,9.98
2022-08-26T17:21:12.305Z,9.40
2022-08-26T17:23:41.013Z,9.18
2022-08-26T17:26:09.190Z,8.70
2022-08-26T17:28:37.077Z,10.10
2022-08-26T17:31:05.018Z,9.93
2022-08-26T17:33:34.181Z,9.35
2022-08-26T17:36:05.031Z,10.15
2022-08-26T17:38:34.892Z,9.40
2022-08-26T17:41:08.914Z,10.05
2022-08-26T17:43:35.955Z,10.23
2022-08-26T17:46:16.223Z,8.40
2022-08-26T17:48:53.492Z,8.95
2022-08-26T17:51:27.151Z,9.32
2022-08-26T17:54:01.936Z,10.20
2022-08-26T17:56:31.772Z,10.68
2022-08-26T17:59:03.982Z,11.27
2022-08-26T18:01:34.501Z,11.20
2022-08-26T18:04:04.046Z,12.38
2022-08-26T18:06:35.062Z,10.90
2022-08-26T18:09:11.238Z,10.88
2022-08-26T18:11:41.119Z,13.20
2022-08-26T18:14:30.716Z,10.93
2022-08-26T18:17:05.996Z,11.32
2022-08-26T18:19:39.887Z,11.45
2022-08-26T18:22:07.148Z,14.02
2022-08-26T18:24:34.902Z,11.20
2022-08-26T18:27:02.002Z,11.50
2022-08-26T18:29:30.704Z,10.20
2022-08-26T18:37:31.777Z,13.00
2022-08-26T18:40:08.515Z,13.75
2022-08-26T18:42:40.991Z,11.43
2022-08-26T18:45:16.592Z,14.05
2022-08-26T18:47:43.482Z,12.05
2022-08-26T18:50:11.263Z,13.40
2022-08-26T18:52:47.646Z,12.40
2022-08-26T18:55:22.937Z,14.55
2022-08-26T18:57:54.962Z,14.35
2022-08-26T19:00:22.033Z,13.15
2022-08-26T19:02:52.430Z,14.57
2022-08-26T19:05:36.063Z,12.43
2022-08-26T19:08:02.944Z,12.27
2022-08-26T19:10:45.354Z,14.52
2022-08-26T19:13:27.731Z,12.20
2022-08-26T19:15:57.955Z,15.00
2022-08-26T19:18:25.553Z,13.13
2022-08-26T19:20:55.405Z,15.88
2022-08-26T19:23:31.893Z,14.02
2022-08-26T19:26:10.067Z,12.85
2022-08-26T19:28:49.370Z,13.88
2022-08-26T19:31:23.037Z,15.00
2022-08-26T19:33:58.900Z,14.13
2022-08-26T19:36:29.570Z,12.75
2022-08-26T19:39:29.617Z,14.57
2022-08-26T19:45:18.319Z,12.55
2022-08-26T19:47:59.302Z,15.45
2022-08-26T19:50:35.264Z,12.70
2022-08-26T19:53:08.909Z,13.20
2022-08-26T19:55:45.030Z,13.00
2022-08-26T19:58:22.810Z,13.77
2022-08-26T20:00:54.731Z,12.75
2022-08-26T20:03:31.355Z,13.85
2022-08-26T20:06:01.326Z,14.98
2022-08-26T20:08:31.193Z,14.65
2022-08-26T20:11:13.121Z,13.90
2022-08-26T20:13:49.757Z,14.18
2022-08-26T20:16:20.249Z,14.40
2022-08-26T20:19:16.290Z,13.32
2022-08-26T20:21:50.067Z,12.95
2022-08-26T20:24:21.280Z,13.30
2022-08-26T20:26:50.387Z,16.13
2022-08-26T20:29:24.249Z,18.08
2022-08-26T20:34:58.198Z,13.73
2022-08-26T20:37:29.325Z,16.48
2022-08-26T20:39:56.357Z,14.70
2022-08-26T20:42:29.606Z,13.75
2022-08-26T20:45:06.487Z,14.35
2022-08-26T20:47:33.708Z,14.07
2022-08-26T20:50:00.557Z,13.70
2022-08-26T20:52:27.630Z,14.02
2022-08-26T20:54:54.427Z,15.55
2022-08-26T20:57:23.529Z,14.10
2022-08-26T20:59:50.621Z,13.45
2022-08-26T21:02:17.294Z,14.43
2022-08-26T21:04:44.139Z,16.63
2022-08-26T21:07:10.870Z,16.95
2022-08-26T21:09:37.570Z,14.80
2022-08-26T21:12:05.484Z,14.05
2022-08-26T21:14:32.239Z,13.85
2022-08-26T21:16:59.617Z,15.20
2022-08-26T21:19:26.757Z,13.40
2022-08-26T21:21:53.407Z,13.10
2022-08-26T21:24:20.129Z,15.50
2022-08-26T21:26:47.505Z,14.40
2022-08-26T21:29:14.681Z,14.68
2022-08-26T21:31:46.032Z,13.07
2022-08-26T21:34:17.998Z,12.88
2022-08-26T21:36:48.946Z,12.45
2022-08-26T21:39:16.172Z,12.25
2022-08-26T21:41:43.888Z,13.02
2022-08-26T21:44:12.046Z,12.40
2022-08-26T21:46:39.131Z,12.80
2022-08-26T21:49:08.954Z,12.48
2022-08-26T21:51:39.357Z,10.43
2022-08-26T21:54:10.781Z,12.85
2022-08-26T21:56:42.024Z,11.68
2022-08-26T21:59:09.163Z,10.60
2022-08-26T22:01:37.844Z,10.00
2022-08-26T22:04:08.145Z,10.25
2022-08-26T22:06:39.555Z,10.95
2022-08-26T22:09:06.307Z,9.63
2022-08-26T22:11:33.174Z,12.05
2022-08-26T22:13:59.964Z,13.05
2022-08-26T22:16:28.759Z,10.38
2022-08-26T22:18:55.719Z,11.70
2022-08-26T22:21:24.677Z,11.95
2022-08-26T22:23:51.707Z,10.35
2022-08-26T22:26:25.727Z,11.38
2022-08-26T22:28:58.696Z,10.32
2022-08-26T22:31:31.004Z,10.05
2022-08-26T22:34:08.040Z,10.50
2022-08-26T22:36:35.289Z,12.15
2022-08-26T22:39:02.269Z,10.43
2022-08-26T22:41:29.020Z,11.38
2022-08-26T22:46:27.699Z,9.77
2022-08-26T22:48:55.222Z,9.32
2022-08-26T22:51:23.183Z,9.85
2022-08-26T22:53:49.944Z,10.70
2022-08-26T22:56:18.443Z,10.27
2022-08-26T22:58:45.658Z,10.35
2022-08-26T23:01:12.858Z,10.32
2022-08-26T23:03:39.843Z,10.43
2022-08-26T23:06:09.507Z,11.80
2022-08-26T23:08:37.284Z,10.02
2022-08-26T23:11:10.943Z,10.60
2022-08-26T23:13:38.817Z,10.75
2022-08-26T23:16:09.576Z,10.10
2022-08-26T23:18:36.926Z,11.55
2022-08-26T23:21:03.784Z,12.38
2022-08-26T23:23:31.265Z,9.38
2022-08-26T23:25:58.570Z,10.82
2022-08-26T23:28:26.579Z,12.02
2022-08-26T23:30:54.028Z,11.95
2022-08-26T23:33:21.005Z,12.43
2022-08-26T23:35:47.690Z,10.30
2022-08-26T23:38:15.085Z,11.13
2022-08-26T23:40:41.995Z,11.93
2022-08-26T23:43:11.618Z,11.57
2022-08-26T23:45:38.940Z,11.40
2022-08-26T23:48:06.742Z,10.63
2022-08-26T23:50:51.984Z,9.75
2022-08-26T23:53:22.035Z,10.40
2022-08-26T23:55:51.421Z,10.07
2022-08-26T23:58:20.387Z,11.25
